createdAt,value
2023-01-17T00:05:11.749Z,23.23
2023-01-17T00:20:33.671Z,14.13
2023-01-17T00:35:35.928Z,17.33
2023-01-17T00:50:57.025Z,11.13
2023-01-17T01:06:17.492Z,13.43
2023-01-17T04:35:36.700Z,20.73
2023-01-17T04:50:39.676Z,21.07
2023-01-17T05:05:43.519Z,19.20
2023-01-17T05:20:45.426Z,22.83
2023-01-17T05:35:47.655Z,20.93
2023-01-17T05:50:49.520Z,20.93
2023-01-17T06:05:51.447Z,27.07
2023-01-17T06:20:54.883Z,24.80
2023-01-17T06:35:56.918Z,16.93
2023-01-17T06:50:58.788Z,22.20
2023-01-17T07:06:04.954Z,26.97
2023-01-17T07:36:14.196Z,34.57
2023-01-17T07:51:16.340Z,32.87
2023-01-17T08:06:22.244Z,29.63
2023-01-17T08:21:24.641Z,27.03
2023-01-17T08:36:28.391Z,27.27
2023-01-17T08:51:31.690Z,28.83
2023-01-17T13:34:53.263Z,22.20
2023-01-17T13:49:56.861Z,26.00
2023-01-17T14:05:24.272Z,38.00
2023-01-17T14:20:26.032Z,35.87
2023-01-17T14:35:34.903Z,28.77
2023-01-17T14:50:39.520Z,32.13
2023-01-17T15:05:43.581Z,30.17
2023-01-17T15:20:58.286Z,29.00
2023-01-17T15:36:37.086Z,34.67
2023-01-17T15:51:39.432Z,32.23
2023-01-17T16:06:45.920Z,30.87
2023-01-17T16:21:48.581Z,33.53
2023-01-17T16:37:06.841Z,37.33
2023-01-17T16:52:08.669Z,30.40
2023-01-17T17:07:10.527Z,30.60
2023-01-17T17:22:12.331Z,34.27
2023-01-17T17:37:16.794Z,25.73
2023-01-17T17:52:18.634Z,29.63
2023-01-17T18:07:20.563Z,33.13
2023-01-17T18:22:22.452Z,25.57
2023-01-17T18:37:24.716Z,37.07
2023-01-17T18:52:26.527Z,32.30
2023-01-17T19:07:29.860Z,38.60
2023-01-17T22:56:47.230Z,44.40
2023-01-17T23:11:55.334Z,42.43
2023-01-17T23:27:15.560Z,33.87
2023-01-17T23:42:36.121Z,31.37
2023-01-17T23:57:38.510Z,32.80
